createdAt,value
2024-01-15T00:02:02.490Z,98232.69
2024-01-15T00:04:29.196Z,98228.31
2024-01-15T00:06:55.921Z,98224.94
2024-01-15T00:09:22.692Z,98221.81
2024-01-15T00:11:49.245Z,98219.84
2024-01-15T00:14:21.537Z,98218.13
2024-01-15T00:16:50.509Z,98211.94
2024-01-15T00:19:17.376Z,98213.34
2024-01-15T00:21:44.558Z,98210.88
2024-01-15T00:24:11.511Z,98220.19
2024-01-15T00:26:38.290Z,98220.28
2024-01-15T00:29:04.992Z,98214.31
2024-01-15T00:31:31.583Z,98221.72
2024-01-15T00:33:59.050Z,98216.56
2024-01-15T00:36:25.967Z,98214.75
2024-01-15T00:38:52.820Z,98215.88
2024-01-15T00:41:19.589Z,98225.00
2024-01-15T00:43:50.337Z,98214.75
2024-01-15T00:46:17.081Z,98213.63
2024-01-15T00:48:43.761Z,98205.88
2024-01-15T00:51:10.471Z,98209.97
2024-01-15T00:53:36.945Z,98198.81
2024-01-15T00:56:04.289Z,98197.09
2024-01-15T00:58:30.994Z,98194.88
2024-01-15T01:00:57.626Z,98191.31
2024-01-15T01:03:24.553Z,98190.13
2024-01-15T01:05:51.222Z,98196.69
2024-01-15T01:08:17.865Z,98192.03
2024-01-15T01:10:44.436Z,98191.03
2024-01-15T01:13:10.925Z,98188.84
2024-01-15T01:15:38.067Z,98196.84
2024-01-15T01:18:05.035Z,98192.19
2024-01-15T01:20:31.763Z,98192.59
2024-01-15T01:22:59.007Z,98188.78
2024-01-15T01:25:25.546Z,98188.22
2024-01-15T01:27:52.130Z,98189.44
2024-01-15T01:30:18.782Z,98183.84
2024-01-15T01:32:45.398Z,98172.00
2024-01-15T01:35:11.999Z,98173.91
2024-01-15T01:37:38.497Z,98168.22
2024-01-15T01:40:06.352Z,98177.19
2024-01-15T01:42:32.849Z,98168.97
2024-01-15T01:44:59.316Z,98175.59
2024-01-15T01:47:27.714Z,98184.66
2024-01-15T01:49:55.094Z,98182.94
2024-01-15T01:52:21.944Z,98183.44
2024-01-15T01:54:48.960Z,98191.09
2024-01-15T01:57:16.578Z,98172.69
2024-01-15T01:59:43.352Z,98185.00
2024-01-15T02:02:09.902Z,98189.59
2024-01-15T02:04:38.156Z,98184.22
2024-01-15T02:07:05.486Z,98179.97
2024-01-15T02:09:33.292Z,98179.97
2024-01-15T02:12:00.306Z,98181.47
2024-01-15T02:14:27.079Z,98184.22
2024-01-15T02:16:53.809Z,98187.59
2024-01-15T02:19:20.486Z,98182.69
2024-01-15T02:21:47.222Z,98182.06
2024-01-15T02:24:14.243Z,98175.53
2024-01-15T02:26:40.921Z,98180.22
2024-01-15T02:29:12.124Z,98180.81
2024-01-15T02:31:39.072Z,98178.53
2024-01-15T02:34:06.014Z,98191.72
2024-01-15T02:36:33.013Z,98198.25
2024-01-15T02:38:59.534Z,98199.53
2024-01-15T02:41:26.143Z,98188.50
2024-01-15T02:43:52.593Z,98196.06
2024-01-15T02:46:19.116Z,98187.44
2024-01-15T02:48:46.109Z,98178.34
2024-01-15T02:51:12.721Z,98172.72
2024-01-15T02:53:40.380Z,98173.72
2024-01-15T02:56:08.502Z,98178.34
2024-01-15T02:58:35.098Z,98167.91
2024-01-15T03:01:01.942Z,98177.50
2024-01-15T03:03:28.694Z,98172.41
2024-01-15T03:05:55.362Z,98177.22
2024-01-15T03:08:23.653Z,98168.75
2024-01-15T03:10:50.167Z,98176.06
2024-01-15T03:13:16.729Z,98180.59
2024-01-15T03:15:44.543Z,98182.16
2024-01-15T03:18:11.749Z,98179.25
2024-01-15T03:20:38.465Z,98175.88
2024-01-15T03:23:05.068Z,98181.88
2024-01-15T03:25:31.549Z,98182.53
2024-01-15T03:27:58.271Z,98166.44
2024-01-15T03:30:24.890Z,98176.22
2024-01-15T03:32:51.541Z,98168.31
2024-01-15T03:35:18.272Z,98174.38
2024-01-15T03:37:44.845Z,98170.63
2024-01-15T03:40:12.161Z,98180.22
2024-01-15T03:42:38.704Z,98172.44
2024-01-15T03:45:05.961Z,98170.22
2024-01-15T03:47:32.544Z,98172.22
2024-01-15T03:49:59.147Z,98169.69
2024-01-15T03:52:25.686Z,98175.00
2024-01-15T03:54:52.340Z,98169.78
2024-01-15T03:57:19.113Z,98158.84
2024-01-15T03:59:48.176Z,98148.00
2024-01-15T04:02:15.193Z,98162.00
2024-01-15T04:04:43.246Z,98158.34
2024-01-15T04:07:10.798Z,98160.69
2024-01-15T04:09:37.524Z,98160.34
2024-01-15T04:12:04.140Z,98152.25
2024-01-15T04:14:30.613Z,98150.00
2024-01-15T04:16:57.372Z,98151.16
2024-01-15T04:19:23.861Z,98154.09
2024-01-15T04:21:50.528Z,98155.63
2024-01-15T04:24:19.088Z,98139.78
2024-01-15T04:26:46.406Z,98145.16
2024-01-15T04:29:13.249Z,98145.91
2024-01-15T04:31:39.834Z,98148.16
2024-01-15T04:34:06.676Z,98145.16
2024-01-15T04:36:33.417Z,98154.53
2024-01-15T04:38:59.889Z,98139.78
2024-01-15T04:41:26.472Z,98147.47
2024-01-15T04:43:53.050Z,98147.63
2024-01-15T04:46:20.657Z,98146.00
2024-01-15T04:48:47.997Z,98148.38
2024-01-15T04:51:14.609Z,98135.22
2024-01-15T04:53:41.211Z,98136.47
2024-01-15T04:56:07.718Z,98134.84
2024-01-15T04:58:34.393Z,98126.00
2024-01-15T05:01:01.006Z,98130.19
2024-01-15T05:03:27.748Z,98126.78
2024-01-15T05:05:54.765Z,98126.09
2024-01-15T05:08:21.215Z,98120.34
2024-01-15T05:10:48.852Z,98129.81
2024-01-15T05:13:15.916Z,98116.03
2024-01-15T05:15:42.530Z,98120.56
2024-01-15T05:18:09.544Z,98118.25
2024-01-15T05:20:36.223Z,98110.72
2024-01-15T05:23:02.770Z,98105.34
2024-01-15T05:25:29.396Z,98111.28
2024-01-15T05:27:55.905Z,98115.88
2024-01-15T05:30:22.593Z,98117.78
2024-01-15T05:32:49.118Z,98120.88
2024-01-15T05:35:15.821Z,98119.66
2024-01-15T05:37:45.652Z,98117.78
2024-01-15T05:40:14.133Z,98119.13
2024-01-15T05:42:41.254Z,98112.13
2024-01-15T05:45:08.463Z,98114.03
2024-01-15T05:47:35.024Z,98112.34
2024-01-15T05:50:03.137Z,98121.53
2024-01-15T05:52:29.792Z,98123.59
2024-01-15T05:54:56.402Z,98116.94
2024-01-15T05:57:22.939Z,98118.47
2024-01-15T05:59:49.522Z,98123.59
2024-01-15T06:02:16.106Z,98113.59
2024-01-15T06:04:42.783Z,98119.81
2024-01-15T06:07:09.330Z,98124.38
2024-01-15T06:09:35.935Z,98125.59
2024-01-15T06:12:02.406Z,98120.63
2024-01-15T06:14:28.965Z,98116.53
2024-01-15T06:16:55.559Z,98125.41
2024-01-15T06:19:22.199Z,98120.09
2024-01-15T06:21:48.895Z,98117.75
2024-01-15T06:24:16.382Z,98124.59
2024-01-15T06:26:42.987Z,98128.19
2024-01-15T06:29:09.592Z,98119.78
2024-01-15T06:31:36.420Z,98119.78
2024-01-15T06:34:03.356Z,98110.78
2024-01-15T06:36:30.068Z,98125.31
2024-01-15T06:38:57.136Z,98120.59
2024-01-15T06:41:23.843Z,98123.81
2024-01-15T06:43:50.400Z,98130.81
2024-01-15T06:46:24.018Z,98133.28
2024-01-15T06:48:50.799Z,98121.75
2024-01-15T06:51:17.953Z,98118.84
2024-01-15T06:53:44.554Z,98117.34
2024-01-15T06:56:11.105Z,98112.25
2024-01-15T06:58:37.935Z,98119.06
2024-01-15T07:01:06.018Z,98116.25
2024-01-15T07:03:32.758Z,98123.38
2024-01-15T07:05:59.496Z,98118.19
2024-01-15T07:08:26.214Z,98122.16
2024-01-15T07:10:53.169Z,98116.94
2024-01-15T07:13:19.749Z,98118.09
2024-01-15T07:15:46.426Z,98123.38
2024-01-15T07:18:13.080Z,98123.44
2024-01-15T07:20:39.959Z,98126.19
2024-01-15T07:23:06.409Z,98129.63
2024-01-15T07:25:32.936Z,98130.50
2024-01-15T07:27:59.628Z,98132.63
2024-01-15T07:30:26.256Z,98136.03
2024-01-15T07:32:54.269Z,98134.09
2024-01-15T07:35:20.985Z,98136.13
2024-01-15T07:37:47.593Z,98139.94
2024-01-15T07:40:14.240Z,98137.75
2024-01-15T07:42:41.235Z,98141.22
2024-01-15T07:45:07.809Z,98146.31
2024-01-15T07:47:34.453Z,98149.81
2024-01-15T07:50:04.209Z,98157.06
2024-01-15T07:52:32.888Z,98152.50
2024-01-15T07:55:04.551Z,98147.41
2024-01-15T07:57:31.170Z,98148.13
2024-01-15T07:59:57.749Z,98144.22
2024-01-15T08:02:24.340Z,98149.28
2024-01-15T08:04:50.804Z,98147.03
2024-01-15T08:07:17.545Z,98141.53
2024-01-15T08:09:44.234Z,98137.78
2024-01-15T08:12:11.414Z,98140.06
2024-01-15T08:14:37.936Z,98141.97
2024-01-15T08:17:04.627Z,98131.91
2024-01-15T08:19:31.317Z,98142.59
2024-01-15T08:21:58.139Z,98136.13
2024-01-15T08:24:24.665Z,98135.59
2024-01-15T08:26:51.152Z,98135.13
2024-01-15T08:29:19.662Z,98137.41
2024-01-15T08:31:46.448Z,98138.06
2024-01-15T08:34:13.332Z,98146.94
2024-01-15T08:36:39.934Z,98142.06
2024-01-15T08:39:06.631Z,98144.91
2024-01-15T08:41:34.509Z,98138.38
2024-01-15T08:44:01.105Z,98139.81
2024-01-15T08:46:27.562Z,98146.88
2024-01-15T08:48:54.302Z,98136.31
2024-01-15T08:51:21.002Z,98136.03
2024-01-15T08:53:47.643Z,98136.72
2024-01-15T08:56:14.137Z,98136.25
2024-01-15T08:58:41.274Z,98129.78
2024-01-15T09:01:07.891Z,98134.00
2024-01-15T09:03:35.369Z,98140.00
2024-01-15T09:06:02.215Z,98140.03
2024-01-15T09:08:29.328Z,98149.28
2024-01-15T09:10:55.826Z,98144.47
2024-01-15T09:13:22.373Z,98145.44
2024-01-15T09:15:48.921Z,98146.03
2024-01-15T09:18:15.696Z,98144.34
2024-01-15T09:20:42.246Z,98155.41
2024-01-15T09:23:08.839Z,98151.91
2024-01-15T09:25:35.622Z,98155.38
2024-01-15T09:28:02.291Z,98156.38
2024-01-15T09:30:28.951Z,98153.16
2024-01-15T09:32:55.579Z,98159.16
2024-01-15T09:35:24.337Z,98158.84
2024-01-15T09:37:51.666Z,98159.31
2024-01-15T09:40:20.929Z,98167.00
2024-01-15T09:42:47.975Z,98163.31
2024-01-15T09:45:15.434Z,98163.00
2024-01-15T09:47:45.471Z,98161.09
2024-01-15T09:50:16.193Z,98157.41
2024-01-15T09:52:44.028Z,98163.75
2024-01-15T09:55:11.112Z,98164.69
2024-01-15T09:57:38.352Z,98171.44
2024-01-15T10:00:07.461Z,98171.75
2024-01-15T10:02:34.462Z,98162.31
2024-01-15T10:05:01.117Z,98167.56
2024-01-15T10:07:30.351Z,98159.94
2024-01-15T10:09:57.100Z,98165.63
2024-01-15T10:12:24.642Z,98158.22
2024-01-15T10:14:52.181Z,98155.63
2024-01-15T10:17:19.246Z,98153.78
2024-01-15T10:19:50.424Z,98148.81
2024-01-15T10:22:19.456Z,98130.31
2024-01-15T10:24:48.541Z,98140.72
2024-01-15T10:27:16.163Z,98132.63
2024-01-15T10:29:43.569Z,98140.03
2024-01-15T10:32:10.629Z,98136.97
2024-01-15T10:34:42.647Z,98129.31
2024-01-15T10:37:10.331Z,98140.72
2024-01-15T10:39:38.470Z,98127.84
2024-01-15T10:42:05.861Z,98122.63
2024-01-15T10:44:33.024Z,98120.03
2024-01-15T10:46:59.815Z,98115.25
2024-01-15T10:49:32.773Z,98122.47
2024-01-15T10:52:02.775Z,98113.47
2024-01-15T10:54:30.497Z,98108.69
2024-01-15T10:56:58.219Z,98117.59
2024-01-15T10:59:24.859Z,98114.19
2024-01-15T11:01:57.568Z,98111.94
2024-01-15T11:04:25.408Z,98115.56
2024-01-15T11:06:56.171Z,98121.97
2024-01-15T11:09:24.826Z,98121.25
2024-01-15T11:12:07.579Z,98103.88
2024-01-15T11:14:48.080Z,98128.16
2024-01-15T11:17:15.612Z,98118.13
2024-01-15T11:19:47.040Z,98119.41
2024-01-15T11:22:35.080Z,98111.94
2024-01-15T11:25:15.206Z,98112.94
2024-01-15T11:27:43.396Z,98124.03
2024-01-15T11:30:11.964Z,98115.41
2024-01-15T11:32:42.638Z,98120.72
2024-01-15T11:35:10.704Z,98116.41
2024-01-15T11:37:52.727Z,98117.09
2024-01-15T11:40:21.313Z,98116.25
2024-01-15T11:42:49.463Z,98111.72
2024-01-15T11:45:22.916Z,98109.91
2024-01-15T11:48:15.718Z,98104.81
2024-01-15T11:50:44.770Z,98102.25
2024-01-15T11:53:19.115Z,98110.28
2024-01-15T11:55:46.900Z,98105.25
2024-01-15T11:58:14.094Z,98116.69
2024-01-15T12:00:51.156Z,98107.44
2024-01-15T12:03:17.780Z,98113.31
2024-01-15T12:05:44.483Z,98109.44
2024-01-15T12:08:14.362Z,98106.50
2024-01-15T12:10:42.974Z,98110.19
2024-01-15T12:13:14.207Z,98112.53
2024-01-15T12:15:42.660Z,98109.31
2024-01-15T12:18:14.209Z,98104.50
2024-01-15T12:20:41.863Z,98113.88
2024-01-15T12:23:09.206Z,98108.28
2024-01-15T12:25:37.674Z,98109.31
2024-01-15T12:28:04.776Z,98109.78
2024-01-15T12:30:33.981Z,98117.91
2024-01-15T12:33:07.752Z,98119.50
2024-01-15T12:35:35.578Z,98107.13
2024-01-15T12:38:04.344Z,98097.22
2024-01-15T12:40:34.672Z,98100.91
2024-01-15T12:43:02.027Z,98103.34
2024-01-15T12:45:29.151Z,98104.38
2024-01-15T12:47:56.478Z,98109.16
2024-01-15T12:50:26.423Z,98096.56
2024-01-15T12:52:52.995Z,98100.69
2024-01-15T12:55:19.641Z,98111.34
2024-01-15T12:57:47.105Z,98113.34
2024-01-15T13:00:15.172Z,98120.75
2024-01-15T13:02:43.999Z,98107.28
2024-01-15T13:05:15.900Z,98115.91
2024-01-15T13:07:44.396Z,98106.28
2024-01-15T13:10:11.515Z,98109.53
2024-01-15T13:12:39.684Z,98110.16
2024-01-15T13:15:06.926Z,98095.66
2024-01-15T13:17:33.563Z,98101.53
2024-01-15T13:20:01.033Z,98109.59
2024-01-15T13:22:32.867Z,98108.88
2024-01-15T13:25:00.055Z,98103.91
2024-01-15T13:27:26.809Z,98117.75
2024-01-15T13:29:53.278Z,98108.00
2024-01-15T13:32:26.843Z,98105.63
2024-01-15T13:34:53.835Z,98113.06
2024-01-15T13:37:20.632Z,98105.69
2024-01-15T13:39:47.379Z,98115.13
2024-01-15T13:42:14.073Z,98115.03
2024-01-15T13:44:40.725Z,98113.72
2024-01-15T13:47:07.435Z,98120.31
2024-01-15T13:49:35.265Z,98116.50
2024-01-15T13:52:04.878Z,98121.13
2024-01-15T13:54:42.068Z,98126.81
2024-01-15T13:57:15.893Z,98123.28
2024-01-15T13:59:42.623Z,98129.88
2024-01-15T14:02:09.160Z,98144.69
2024-01-15T14:04:36.133Z,98138.22
2024-01-15T14:07:02.745Z,98136.44
2024-01-15T14:09:29.244Z,98132.50
2024-01-15T14:11:55.861Z,98134.59
2024-01-15T14:14:22.553Z,98132.91
2024-01-15T14:16:49.032Z,98136.13
2024-01-15T14:19:16.596Z,98140.69
2024-01-15T14:21:43.273Z,98141.13
2024-01-15T14:24:09.898Z,98138.53
2024-01-15T14:26:36.481Z,98141.91
2024-01-15T14:29:03.001Z,98147.75
2024-01-15T14:31:29.897Z,98160.72
2024-01-15T14:33:56.810Z,98162.13
2024-01-15T14:36:23.336Z,98155.00
2024-01-15T14:38:50.203Z,98159.06
2024-01-15T14:41:20.274Z,98149.28
2024-01-15T14:43:46.946Z,98147.28
2024-01-15T14:46:13.516Z,98151.34
2024-01-15T14:48:40.176Z,98156.25
2024-01-15T14:51:07.868Z,98155.94
2024-01-15T14:53:34.367Z,98159.25
2024-01-15T14:56:01.021Z,98152.78
2024-01-15T14:58:27.495Z,98158.81
2024-01-15T15:00:54.130Z,98173.84
2024-01-15T15:03:22.119Z,98175.06
2024-01-15T15:05:49.881Z,98176.84
2024-01-15T15:08:16.497Z,98173.38
2024-01-15T15:10:43.060Z,98183.47
2024-01-15T15:13:11.099Z,98181.31
2024-01-15T15:15:37.997Z,98177.94
2024-01-15T15:18:04.755Z,98178.41
2024-01-15T15:20:31.608Z,98177.06
2024-01-15T15:22:58.306Z,98184.25
2024-01-15T15:25:24.870Z,98191.00
2024-01-15T15:27:51.542Z,98190.16
2024-01-15T15:30:18.277Z,98189.59
2024-01-15T15:32:44.990Z,98187.97
2024-01-15T15:35:12.182Z,98179.91
2024-01-15T15:37:38.920Z,98183.91
2024-01-15T15:40:10.358Z,98192.63
2024-01-15T15:42:37.157Z,98191.56
2024-01-15T15:45:04.842Z,98193.41
2024-01-15T15:47:31.889Z,98187.41
2024-01-15T15:49:58.776Z,98201.88
2024-01-15T15:52:25.809Z,98200.34
2024-01-15T15:54:52.440Z,98196.78
2024-01-15T15:57:19.197Z,98203.00
2024-01-15T15:59:45.732Z,98200.44
2024-01-15T16:02:12.277Z,98196.59
2024-01-15T16:04:39.636Z,98206.00
2024-01-15T16:07:10.795Z,98209.13
2024-01-15T16:09:37.778Z,98215.88
2024-01-15T16:12:04.849Z,98213.66
2024-01-15T16:14:31.413Z,98213.25
2024-01-15T16:23:13.700Z,98214.84
2024-01-15T16:23:26.985Z,98217.19
2024-01-15T16:23:42.400Z,98221.06
2024-01-15T16:25:20.805Z,98223.63
2024-01-15T16:27:47.607Z,98222.78
2024-01-15T16:30:24.906Z,98233.53
2024-01-15T16:32:56.922Z,98236.22
2024-01-15T16:35:23.979Z,98257.38
2024-01-15T16:37:50.850Z,98243.41
2024-01-15T16:40:17.919Z,98252.31
2024-01-15T16:42:46.382Z,98249.63
2024-01-15T16:45:13.289Z,98259.81
2024-01-15T16:47:40.034Z,98259.50
2024-01-15T16:50:06.963Z,98264.84
2024-01-15T16:52:33.681Z,98264.00
2024-01-15T16:55:00.348Z,98263.47
2024-01-15T16:57:27.083Z,98269.09
2024-01-15T16:59:53.898Z,98271.06
2024-01-15T17:02:20.696Z,98270.31
2024-01-15T17:04:47.393Z,98276.16
2024-01-15T17:07:15.000Z,98275.44
2024-01-15T17:09:41.711Z,98285.75
2024-01-15T17:12:08.442Z,98291.03
2024-01-15T17:14:35.107Z,98285.91
2024-01-15T17:17:02.467Z,98292.66
2024-01-15T17:19:29.324Z,98301.44
2024-01-15T17:21:56.245Z,98309.06
2024-01-15T17:24:22.757Z,98309.06
2024-01-15T17:26:50.161Z,98317.41
2024-01-15T17:29:17.508Z,98327.66
2024-01-15T17:31:44.069Z,98325.56
2024-01-15T17:34:11.682Z,98329.09
2024-01-15T17:36:40.294Z,98328.06
2024-01-15T17:39:07.438Z,98337.88
2024-01-15T17:41:34.670Z,98332.91
2024-01-15T17:44:02.290Z,98344.09
2024-01-15T17:46:30.248Z,98357.22
2024-01-15T17:49:03.472Z,98369.09
2024-01-15T17:51:34.165Z,98360.22
2024-01-15T17:54:01.949Z,98367.56
2024-01-15T17:56:29.054Z,98369.44
2024-01-15T17:58:56.849Z,98373.63
2024-01-15T18:01:23.987Z,98377.22
2024-01-15T18:03:51.618Z,98378.69
2024-01-15T18:06:18.522Z,98381.75
2024-01-15T18:08:45.596Z,98398.19
2024-01-15T18:11:19.711Z,98382.53
2024-01-15T18:13:46.754Z,98388.72
2024-01-15T18:16:13.430Z,98391.78
2024-01-15T18:18:40.323Z,98398.38
2024-01-15T18:21:07.088Z,98392.72
2024-01-15T18:23:34.688Z,98402.22
2024-01-15T18:26:01.407Z,98416.56
2024-01-15T18:28:28.429Z,98416.16
2024-01-15T18:30:55.050Z,98422.66
2024-01-15T18:33:24.471Z,98424.72
2024-01-15T18:35:51.637Z,98431.41
2024-01-15T18:38:18.354Z,98433.13
2024-01-15T18:40:44.935Z,98436.91
2024-01-15T18:43:11.575Z,98442.53
2024-01-15T18:45:38.064Z,98455.66
2024-01-15T18:48:05.071Z,98449.13
2024-01-15T18:50:31.976Z,98446.06
2024-01-15T18:53:00.234Z,98451.81
2024-01-15T18:55:26.741Z,98452.97
2024-01-15T18:57:53.382Z,98458.63
2024-01-15T19:00:22.037Z,98452.09
2024-01-15T19:02:48.820Z,98457.72
2024-01-15T19:05:15.564Z,98454.97
2024-01-15T19:07:44.289Z,98464.50
2024-01-15T19:10:10.875Z,98458.63
2024-01-15T19:12:37.329Z,98462.16
2024-01-15T19:15:04.294Z,98462.28
2024-01-15T19:17:30.913Z,98464.63
2024-01-15T19:19:57.670Z,98468.66
2024-01-15T19:22:24.264Z,98462.00
2024-01-15T19:24:50.906Z,98477.31
2024-01-15T19:27:17.419Z,98476.91
2024-01-15T19:29:44.048Z,98484.53
2024-01-15T19:32:14.031Z,98477.34
2024-01-15T19:34:43.450Z,98482.47
2024-01-15T19:37:09.876Z,98488.44
2024-01-15T19:39:36.465Z,98486.06
2024-01-15T19:42:04.420Z,98491.25
2024-01-15T19:44:31.286Z,98501.00
2024-01-15T19:46:57.960Z,98507.47
2024-01-15T19:49:24.640Z,98508.50
2024-01-15T19:51:51.145Z,98501.00
2024-01-15T19:54:19.101Z,98502.63
2024-01-15T19:56:45.849Z,98517.19
2024-01-15T19:59:12.750Z,98520.28
2024-01-15T20:01:39.396Z,98514.66
2024-01-15T20:04:06.062Z,98520.13
2024-01-15T20:06:33.193Z,98522.09
2024-01-15T20:08:59.805Z,98526.28
2024-01-15T20:11:26.498Z,98521.06
2024-01-15T20:13:52.999Z,98514.00
2024-01-15T20:16:19.576Z,98524.72
2024-01-15T20:18:46.490Z,98533.06
2024-01-15T20:21:13.420Z,98536.41
2024-01-15T20:23:50.509Z,98532.44
2024-01-15T20:26:22.331Z,98538.97
2024-01-15T20:28:49.024Z,98546.81
2024-01-15T20:31:15.502Z,98536.09
2024-01-15T20:33:42.376Z,98558.03
2024-01-15T20:36:09.371Z,98552.31
2024-01-15T20:38:37.371Z,98555.97
2024-01-15T20:41:04.103Z,98548.72
2024-01-15T20:43:31.205Z,98560.94
2024-01-15T20:45:57.735Z,98547.72
2024-01-15T20:48:25.573Z,98559.59
2024-01-15T20:50:52.209Z,98565.06
2024-01-15T20:53:20.747Z,98568.22
2024-01-15T20:55:47.451Z,98560.34
2024-01-15T20:58:14.020Z,98560.91
2024-01-15T21:00:40.689Z,98563.97
2024-01-15T21:03:07.740Z,98571.09
2024-01-15T21:05:35.281Z,98568.50
2024-01-15T21:08:03.901Z,98567.56
2024-01-15T21:10:30.368Z,98573.94
2024-01-15T21:12:56.990Z,98574.06
2024-01-15T21:15:23.601Z,98578.13
2024-01-15T21:17:50.860Z,98586.22
2024-01-15T21:20:17.580Z,98577.47
2024-01-15T21:22:44.408Z,98590.84
2024-01-15T21:25:11.393Z,98590.97
2024-01-15T21:27:42.048Z,98581.22
2024-01-15T21:30:09.296Z,98580.91
2024-01-15T21:32:36.014Z,98596.28
2024-01-15T21:35:02.732Z,98594.06
2024-01-15T21:37:29.542Z,98605.69
2024-01-15T21:39:56.069Z,98611.75
2024-01-15T21:42:22.736Z,98605.38
2024-01-15T21:44:49.405Z,98623.78
2024-01-15T21:47:16.241Z,98620.97
2024-01-15T21:49:42.937Z,98630.94
2024-01-15T21:52:09.996Z,98645.34
2024-01-15T21:54:36.584Z,98634.28
2024-01-15T21:57:05.337Z,98637.38
2024-01-15T21:59:34.412Z,98639.69
2024-01-15T22:02:05.309Z,98649.22
2024-01-15T22:04:32.150Z,98640.53
2024-01-15T22:06:58.741Z,98635.88
2024-01-15T22:09:25.408Z,98649.28
2024-01-15T22:11:52.407Z,98651.28
2024-01-15T22:14:19.822Z,98650.25
2024-01-15T22:16:47.259Z,98648.41
2024-01-15T22:19:13.969Z,98666.53
2024-01-15T22:21:44.384Z,98658.00
2024-01-15T22:24:10.848Z,98664.41
2024-01-15T22:26:38.366Z,98653.22
2024-01-15T22:29:05.499Z,98673.81
2024-01-15T22:31:33.041Z,98673.69
2024-01-15T22:34:00.341Z,98672.25
2024-01-15T22:36:27.126Z,98673.63
2024-01-15T22:38:53.822Z,98692.06
2024-01-15T22:41:21.214Z,98687.31
2024-01-15T22:43:47.777Z,98693.44
2024-01-15T22:46:15.307Z,98698.94
2024-01-15T22:48:41.983Z,98698.00
2024-01-15T22:51:09.625Z,98705.66
2024-01-15T22:53:36.210Z,98703.72
2024-01-15T22:56:03.262Z,98703.78
2024-01-15T22:58:29.750Z,98703.19
2024-01-15T23:00:56.256Z,98710.56
2024-01-15T23:03:22.982Z,98706.88
2024-01-15T23:05:49.581Z,98696.66
2024-01-15T23:08:16.183Z,98713.63
2024-01-15T23:10:42.696Z,98713.78
2024-01-15T23:13:10.184Z,98727.19
2024-01-15T23:15:36.656Z,98725.72
2024-01-15T23:18:03.761Z,98727.50
2024-01-15T23:20:30.451Z,98730.00
2024-01-15T23:22:56.941Z,98729.22
2024-01-15T23:25:23.516Z,98735.81
2024-01-15T23:27:50.007Z,98733.44
2024-01-15T23:30:16.879Z,98728.13
2024-01-15T23:32:43.648Z,98729.94
2024-01-15T23:35:10.421Z,98735.50
2024-01-15T23:37:36.914Z,98741.53
2024-01-15T23:40:04.275Z,98735.16
2024-01-15T23:42:31.027Z,98742.25
2024-01-15T23:44:57.674Z,98739.41
2024-01-15T23:47:24.725Z,98741.44
2024-01-15T23:49:51.435Z,98746.69
2024-01-15T23:52:18.090Z,98742.25
2024-01-15T23:54:44.888Z,98749.97
2024-01-15T23:57:11.447Z,98761.81
2024-01-15T23:59:39.364Z,98756.09
